createdAt,value
2022-12-28T00:02:40.022Z,72.77
2022-12-28T00:17:42.299Z,73.582
2022-12-28T00:32:44.519Z,70.814
2022-12-28T00:47:46.863Z,71.33
2022-12-28T01:02:49.174Z,70.072
2022-12-28T01:17:51.496Z,72.089
2022-12-28T01:32:53.834Z,74.777
2022-12-28T01:47:56.140Z,73.601
2022-12-28T02:02:58.461Z,71.892
2022-12-28T02:18:00.844Z,72.519
2022-12-28T02:33:03.118Z,75.166
2022-12-28T02:48:05.378Z,74.829
2022-12-28T03:03:07.680Z,73.391
2022-12-28T03:18:09.932Z,74.262
2022-12-28T03:33:12.198Z,71.901
2022-12-28T03:48:14.444Z,72.28
2022-12-28T04:03:16.747Z,71.933
2022-12-28T04:18:19.200Z,70.507
2022-12-28T04:33:21.451Z,72.593
2022-12-28T04:48:23.707Z,71.466
2022-12-28T05:03:25.950Z,70.694
2022-12-28T05:18:28.198Z,71.18
2022-12-28T05:33:30.416Z,70.248
2022-12-28T05:48:32.666Z,70.799
2022-12-28T06:03:35.009Z,70.583
2022-12-28T06:18:37.297Z,71.967
2022-12-28T06:33:39.531Z,72.17
2022-12-28T06:48:41.735Z,70.99
2022-12-28T07:03:43.965Z,71.846
2022-12-28T07:18:46.276Z,70.888
2022-12-28T07:33:48.515Z,71.81
2022-12-28T07:48:50.882Z,71.201
2022-12-28T08:03:53.258Z,71.758
2022-12-28T08:18:55.545Z,71.385
2022-12-28T08:33:57.988Z,70.847
2022-12-28T08:49:00.282Z,71.532
2022-12-28T09:04:02.510Z,71.214
2022-12-28T09:19:04.869Z,71.796
2022-12-28T09:34:36.671Z,71.704
2022-12-28T09:49:39.475Z,72.903
2022-12-28T10:04:47.298Z,71.457
2022-12-28T10:19:51.553Z,70.802
2022-12-28T10:34:53.930Z,71.615
2022-12-28T10:50:35.197Z,73.102
2022-12-28T11:05:38.288Z,71.947
2022-12-28T11:20:40.558Z,79.246
2022-12-28T11:35:42.841Z,80.631
2022-12-28T11:50:45.155Z,80.646
2022-12-28T12:05:47.440Z,75.909
2022-12-28T12:20:49.962Z,77.494
2022-12-28T12:35:52.186Z,74.71
2022-12-28T12:50:54.569Z,77.235
2022-12-28T13:05:56.818Z,72.902
2022-12-28T13:20:59.043Z,74.45
2022-12-28T13:36:01.311Z,73.564
2022-12-28T13:51:03.611Z,73.981
2022-12-28T14:06:05.833Z,74.395
2022-12-28T14:21:08.130Z,73.854
2022-12-28T14:36:10.372Z,74.253
2022-12-28T14:51:13.217Z,72.199
2022-12-28T15:06:15.535Z,73.348
2022-12-28T15:21:20.125Z,74.584
2022-12-28T15:36:22.346Z,74.509
2022-12-28T15:51:24.649Z,76.331
2022-12-28T16:06:26.870Z,74.764
2022-12-28T16:21:29.062Z,74.549
2022-12-28T16:36:31.555Z,73.673
2022-12-28T16:51:34.028Z,73.318
2022-12-28T17:06:36.361Z,72.334
2022-12-28T17:21:38.559Z,72.47
2022-12-28T17:36:41.035Z,72.803
2022-12-28T17:51:43.224Z,77.141
2022-12-28T18:06:45.488Z,79.14
2022-12-28T18:21:47.851Z,75.846
2022-12-28T18:36:50.135Z,73.189
2022-12-28T18:51:52.488Z,74.241
2022-12-28T19:06:54.841Z,75.713
2022-12-28T19:21:59.052Z,75.076
2022-12-28T19:37:01.869Z,74.925
2022-12-28T19:52:04.130Z,73.342
2022-12-28T20:07:06.350Z,73.576
2022-12-28T20:22:08.633Z,74.385
2022-12-28T20:37:10.865Z,73.92
2022-12-28T20:52:13.143Z,71.978
2022-12-28T21:07:15.427Z,71.243
2022-12-28T21:22:17.709Z,71.443
2022-12-28T21:37:19.935Z,71.298
2022-12-28T21:52:22.350Z,71.096
2022-12-28T22:07:24.634Z,70.689
2022-12-28T22:22:26.855Z,70.96
2022-12-28T22:37:29.279Z,70.875
2022-12-28T22:52:31.705Z,71.109
2022-12-28T23:07:33.931Z,70.419
2022-12-28T23:22:36.197Z,68.605
2022-12-28T23:37:38.501Z,69.709
2022-12-28T23:52:40.783Z,70.387
